sensor_id;sensor_type;location;lat;lon;timestamp;temperature;humidity
6118;DHT22;3089;48.202;11.510;2022-07-29T00:01:21;22.20;98.20
6118;DHT22;3089;48.202;11.510;2022-07-29T00:03:49;22.10;98.40
6118;DHT22;3089;48.202;11.510;2022-07-29T00:06:17;22.20;98.40
6118;DHT22;3089;48.202;11.510;2022-07-29T00:08:45;22.20;98.30
6118;DHT22;3089;48.202;11.510;2022-07-29T00:11:13;22.10;98.40
6118;DHT22;3089;48.202;11.510;2022-07-29T00:13:42;22.20;98.40
6118;DHT22;3089;48.202;11.510;2022-07-29T00:16:16;22.10;98.40
6118;DHT22;3089;48.202;11.510;2022-07-29T00:18:44;22.10;98.50
6118;DHT22;3089;48.202;11.510;2022-07-29T00:21:12;22.10;98.60
6118;DHT22;3089;48.202;11.510;2022-07-29T00:23:40;22.00;98.70
6118;DHT22;3089;48.202;11.510;2022-07-29T00:26:08;22.00;98.70
6118;DHT22;3089;48.202;11.510;2022-07-29T00:28:36;22.00;98.70
6118;DHT22;3089;48.202;11.510;2022-07-29T00:31:05;21.90;98.90
6118;DHT22;3089;48.202;11.510;2022-07-29T00:33:34;21.90;99.00
6118;DHT22;3089;48.202;11.510;2022-07-29T00:36:02;21.90;99.00
6118;DHT22;3089;48.202;11.510;2022-07-29T00:38:29;21.90;99.20
6118;DHT22;3089;48.202;11.510;2022-07-29T00:40:57;21.90;99.30
6118;DHT22;3089;48.202;11.510;2022-07-29T00:43:25;21.90;99.40
6118;DHT22;3089;48.202;11.510;2022-07-29T00:45:53;21.90;99.50
6118;DHT22;3089;48.202;11.510;2022-07-29T00:48:23;21.80;99.60
6118;DHT22;3089;48.202;11.510;2022-07-29T00:50:50;21.80;99.70
6118;DHT22;3089;48.202;11.510;2022-07-29T00:53:19;21.80;99.80
6118;DHT22;3089;48.202;11.510;2022-07-29T00:55:47;21.70;99.90
6118;DHT22;3089;48.202;11.510;2022-07-29T00:58:18;21.70;99.90
6118;DHT22;3089;48.202;11.510;2022-07-29T01:00:45;21.80;99.90
6118;DHT22;3089;48.202;11.510;2022-07-29T01:03:13;21.70;99.90
6118;DHT22;3089;48.202;11.510;2022-07-29T01:05:44;21.70;99.90
6118;DHT22;3089;48.202;11.510;2022-07-29T01:08:17;21.60;99.90
6118;DHT22;3089;48.202;11.510;2022-07-29T01:10:46;21.60;99.90
6118;DHT22;3089;48.202;11.510;2022-07-29T01:13:15;21.50;99.90
6118;DHT22;3089;48.202;11.510;2022-07-29T01:15:46;21.40;99.90
6118;DHT22;3089;48.202;11.510;2022-07-29T01:18:20;21.30;99.90
6118;DHT22;3089;48.202;11.510;2022-07-29T01:21:19;21.40;99.90
6118;DHT22;3089;48.202;11.510;2022-07-29T01:24:11;21.40;99.90
6118;DHT22;3089;48.202;11.510;2022-07-29T01:26:44;21.50;99.90
6118;DHT22;3089;48.202;11.510;2022-07-29T01:29:24;21.40;99.90
6118;DHT22;3089;48.202;11.510;2022-07-29T01:32:08;21.30;99.90
6118;DHT22;3089;48.202;11.510;2022-07-29T01:34:57;21.30;99.90
6118;DHT22;3089;48.202;11.510;2022-07-29T01:37:28;21.30;99.90
6118;DHT22;3089;48.202;11.510;2022-07-29T01:39:59;21.20;99.90
6118;DHT22;3089;48.202;11.510;2022-07-29T01:42:34;21.30;99.90
6118;DHT22;3089;48.202;11.510;2022-07-29T01:45:10;21.30;99.90
6118;DHT22;3089;48.202;11.510;2022-07-29T01:47:43;21.30;99.90
6118;DHT22;3089;48.202;11.510;2022-07-29T01:50:16;21.20;99.90
6118;DHT22;3089;48.202;11.510;2022-07-29T01:52:47;20.90;99.90
6118;DHT22;3089;48.202;11.510;2022-07-29T01:55:17;21.00;99.90
6118;DHT22;3089;48.202;11.510;2022-07-29T01:57:48;21.10;99.90
6118;DHT22;3089;48.202;11.510;2022-07-29T02:00:18;21.10;99.90
6118;DHT22;3089;48.202;11.510;2022-07-29T02:02:47;21.10;99.90
6118;DHT22;3089;48.202;11.510;2022-07-29T02:05:18;21.10;99.90
6118;DHT22;3089;48.202;11.510;2022-07-29T02:07:48;21.10;99.90
6118;DHT22;3089;48.202;11.510;2022-07-29T02:10:20;21.20;99.90
6118;DHT22;3089;48.202;11.510;2022-07-29T02:12:52;20.50;99.90
6118;DHT22;3089;48.202;11.510;2022-07-29T02:15:23;20.20;99.90
6118;DHT22;3089;48.202;11.510;2022-07-29T02:17:55;20.70;99.90
6118;DHT22;3089;48.202;11.510;2022-07-29T02:20:25;20.90;99.90
6118;DHT22;3089;48.202;11.510;2022-07-29T02:22:55;21.10;99.90
6118;DHT22;3089;48.202;11.510;2022-07-29T02:25:24;21.00;99.90
6118;DHT22;3089;48.202;11.510;2022-07-29T02:28:05;21.00;99.90
6118;DHT22;3089;48.202;11.510;2022-07-29T02:30:38;21.00;99.90
6118;DHT22;3089;48.202;11.510;2022-07-29T02:33:08;20.20;99.90
6118;DHT22;3089;48.202;11.510;2022-07-29T02:35:38;20.60;99.90
6118;DHT22;3089;48.202;11.510;2022-07-29T02:38:08;20.80;99.90
6118;DHT22;3089;48.202;11.510;2022-07-29T02:40:55;20.90;99.90
6118;DHT22;3089;48.202;11.510;2022-07-29T02:43:24;20.90;99.90
6118;DHT22;3089;48.202;11.510;2022-07-29T02:45:55;20.90;99.90
6118;DHT22;3089;48.202;11.510;2022-07-29T02:48:32;20.90;99.90
6118;DHT22;3089;48.202;11.510;2022-07-29T02:51:08;20.90;99.90
6118;DHT22;3089;48.202;11.510;2022-07-29T02:54:02;20.90;99.90
6118;DHT22;3089;48.202;11.510;2022-07-29T02:56:33;20.80;99.90
6118;DHT22;3089;48.202;11.510;2022-07-29T02:59:05;20.80;99.90
6118;DHT22;3089;48.202;11.510;2022-07-29T03:01:39;20.80;99.90
6118;DHT22;3089;48.202;11.510;2022-07-29T03:04:09;20.80;99.90
6118;DHT22;3089;48.202;11.510;2022-07-29T03:06:40;20.80;99.90
6118;DHT22;3089;48.202;11.510;2022-07-29T03:09:10;20.80;99.90
6118;DHT22;3089;48.202;11.510;2022-07-29T03:11:40;20.70;99.90
6118;DHT22;3089;48.202;11.510;2022-07-29T03:14:17;20.70;99.90
6118;DHT22;3089;48.202;11.510;2022-07-29T03:16:49;20.60;99.90
6118;DHT22;3089;48.202;11.510;2022-07-29T03:19:18;20.50;99.90
6118;DHT22;3089;48.202;11.510;2022-07-29T03:21:47;20.50;99.90
6118;DHT22;3089;48.202;11.510;2022-07-29T03:24:26;20.50;99.90
6118;DHT22;3089;48.202;11.510;2022-07-29T03:26:55;20.60;99.90
6118;DHT22;3089;48.202;11.510;2022-07-29T03:29:23;20.50;99.90
6118;DHT22;3089;48.202;11.510;2022-07-29T03:32:01;20.50;99.90
6118;DHT22;3089;48.202;11.510;2022-07-29T03:34:34;20.50;99.90
6118;DHT22;3089;48.202;11.510;2022-07-29T03:37:02;20.50;99.90
6118;DHT22;3089;48.202;11.510;2022-07-29T03:39:33;20.40;99.90
6118;DHT22;3089;48.202;11.510;2022-07-29T03:42:03;20.30;99.90
6118;DHT22;3089;48.202;11.510;2022-07-29T03:44:32;20.30;99.90
6118;DHT22;3089;48.202;11.510;2022-07-29T03:47:04;20.40;99.90
6118;DHT22;3089;48.202;11.510;2022-07-29T03:49:36;20.40;99.90
6118;DHT22;3089;48.202;11.510;2022-07-29T03:52:05;20.40;99.90
6118;DHT22;3089;48.202;11.510;2022-07-29T03:54:33;20.40;99.90
6118;DHT22;3089;48.202;11.510;2022-07-29T03:57:02;20.30;99.90
6118;DHT22;3089;48.202;11.510;2022-07-29T03:59:31;20.30;99.90
6118;DHT22;3089;48.202;11.510;2022-07-29T04:02:03;20.30;99.90
6118;DHT22;3089;48.202;11.510;2022-07-29T04:04:33;20.20;99.90
6118;DHT22;3089;48.202;11.510;2022-07-29T04:07:01;20.00;99.90
6118;DHT22;3089;48.202;11.510;2022-07-29T04:09:29;19.80;99.90
6118;DHT22;3089;48.202;11.510;2022-07-29T04:11:57;20.10;99.90
6118;DHT22;3089;48.202;11.510;2022-07-29T04:14:29;20.10;99.90
6118;DHT22;3089;48.202;11.510;2022-07-29T04:16:57;20.20;99.90
6118;DHT22;3089;48.202;11.510;2022-07-29T04:19:26;20.20;99.90
6118;DHT22;3089;48.202;11.510;2022-07-29T04:21:54;20.20;99.90
6118;DHT22;3089;48.202;11.510;2022-07-29T04:24:22;20.10;99.90
6118;DHT22;3089;48.202;11.510;2022-07-29T04:26:50;20.10;99.90
6118;DHT22;3089;48.202;11.510;2022-07-29T04:29:18;20.20;99.90
6118;DHT22;3089;48.202;11.510;2022-07-29T04:31:46;20.20;99.90
6118;DHT22;3089;48.202;11.510;2022-07-29T04:34:14;20.20;99.90
6118;DHT22;3089;48.202;11.510;2022-07-29T04:36:44;20.20;99.90
6118;DHT22;3089;48.202;11.510;2022-07-29T04:39:12;20.20;99.90
6118;DHT22;3089;48.202;11.510;2022-07-29T04:41:46;20.20;99.90
6118;DHT22;3089;48.202;11.510;2022-07-29T04:44:14;20.20;99.90
6118;DHT22;3089;48.202;11.510;2022-07-29T04:46:42;20.30;99.90
6118;DHT22;3089;48.202;11.510;2022-07-29T04:49:11;20.30;99.90
6118;DHT22;3089;48.202;11.510;2022-07-29T04:51:39;20.70;99.90
6118;DHT22;3089;48.202;11.510;2022-07-29T04:54:09;21.90;99.90
6118;DHT22;3089;48.202;11.510;2022-07-29T04:56:36;22.30;99.90
6118;DHT22;3089;48.202;11.510;2022-07-29T04:59:04;22.50;99.90
6118;DHT22;3089;48.202;11.510;2022-07-29T05:01:32;22.00;99.90
6118;DHT22;3089;48.202;11.510;2022-07-29T05:04:00;22.20;99.90
6118;DHT22;3089;48.202;11.510;2022-07-29T05:06:29;21.40;99.90
6118;DHT22;3089;48.202;11.510;2022-07-29T05:08:57;22.30;99.90
6118;DHT22;3089;48.202;11.510;2022-07-29T05:11:26;21.50;99.90
6118;DHT22;3089;48.202;11.510;2022-07-29T05:13:56;20.90;99.90
6118;DHT22;3089;48.202;11.510;2022-07-29T05:16:24;20.70;99.90
6118;DHT22;3089;48.202;11.510;2022-07-29T05:18:52;22.00;99.90
6118;DHT22;3089;48.202;11.510;2022-07-29T05:21:19;22.80;99.90
6118;DHT22;3089;48.202;11.510;2022-07-29T05:23:47;23.10;99.90
6118;DHT22;3089;48.202;11.510;2022-07-29T05:26:15;23.30;99.90
6118;DHT22;3089;48.202;11.510;2022-07-29T05:28:44;23.60;99.90
6118;DHT22;3089;48.202;11.510;2022-07-29T05:31:12;23.60;99.90
6118;DHT22;3089;48.202;11.510;2022-07-29T05:33:41;23.20;99.90
6118;DHT22;3089;48.202;11.510;2022-07-29T05:36:09;23.20;99.90
6118;DHT22;3089;48.202;11.510;2022-07-29T05:38:38;23.20;99.90
6118;DHT22;3089;48.202;11.510;2022-07-29T05:41:05;23.30;99.90
6118;DHT22;3089;48.202;11.510;2022-07-29T05:43:33;23.10;99.90
6118;DHT22;3089;48.202;11.510;2022-07-29T05:46:03;23.30;99.90
6118;DHT22;3089;48.202;11.510;2022-07-29T05:48:31;23.20;99.90
6118;DHT22;3089;48.202;11.510;2022-07-29T05:50:59;23.00;99.90
6118;DHT22;3089;48.202;11.510;2022-07-29T05:53:26;23.70;99.90
6118;DHT22;3089;48.202;11.510;2022-07-29T05:55:54;23.90;99.90
6118;DHT22;3089;48.202;11.510;2022-07-29T05:58:23;24.40;99.90
6118;DHT22;3089;48.202;11.510;2022-07-29T06:00:50;24.50;99.80
6118;DHT22;3089;48.202;11.510;2022-07-29T06:03:20;24.40;99.90
6118;DHT22;3089;48.202;11.510;2022-07-29T06:05:48;24.60;99.80
6118;DHT22;3089;48.202;11.510;2022-07-29T06:08:16;24.80;99.70
6118;DHT22;3089;48.202;11.510;2022-07-29T06:10:44;24.80;99.70
6118;DHT22;3089;48.202;11.510;2022-07-29T06:13:12;24.50;99.90
6118;DHT22;3089;48.202;11.510;2022-07-29T06:15:42;24.90;99.90
6118;DHT22;3089;48.202;11.510;2022-07-29T06:18:12;25.50;99.90
6118;DHT22;3089;48.202;11.510;2022-07-29T06:20:41;26.00;98.80
6118;DHT22;3089;48.202;11.510;2022-07-29T06:23:09;25.50;98.70
6118;DHT22;3089;48.202;11.510;2022-07-29T06:25:37;25.40;99.00
6118;DHT22;3089;48.202;11.510;2022-07-29T06:28:05;25.30;98.60
6118;DHT22;3089;48.202;11.510;2022-07-29T06:30:33;25.90;98.10
6118;DHT22;3089;48.202;11.510;2022-07-29T06:33:02;26.00;97.50
6118;DHT22;3089;48.202;11.510;2022-07-29T06:35:33;26.10;96.70
6118;DHT22;3089;48.202;11.510;2022-07-29T06:38:09;26.50;96.40
6118;DHT22;3089;48.202;11.510;2022-07-29T06:40:58;27.00;95.00
6118;DHT22;3089;48.202;11.510;2022-07-29T06:43:31;26.60;96.40
6118;DHT22;3089;48.202;11.510;2022-07-29T06:46:02;27.90;95.20
6118;DHT22;3089;48.202;11.510;2022-07-29T06:48:30;27.70;94.80
6118;DHT22;3089;48.202;11.510;2022-07-29T06:50:58;28.20;94.00
6118;DHT22;3089;48.202;11.510;2022-07-29T06:53:29;28.00;94.30
6118;DHT22;3089;48.202;11.510;2022-07-29T06:55:57;28.20;93.50
6118;DHT22;3089;48.202;11.510;2022-07-29T06:58:26;28.50;93.40
6118;DHT22;3089;48.202;11.510;2022-07-29T07:01:00;29.40;92.50
6118;DHT22;3089;48.202;11.510;2022-07-29T07:03:32;28.60;92.70
6118;DHT22;3089;48.202;11.510;2022-07-29T07:06:00;28.30;92.80
6118;DHT22;3089;48.202;11.510;2022-07-29T07:08:29;28.60;92.70
6118;DHT22;3089;48.202;11.510;2022-07-29T07:10:57;29.00;91.90
6118;DHT22;3089;48.202;11.510;2022-07-29T07:13:25;28.80;92.20
6118;DHT22;3089;48.202;11.510;2022-07-29T07:15:54;29.40;91.40
6118;DHT22;3089;48.202;11.510;2022-07-29T07:18:22;28.70;92.30
6118;DHT22;3089;48.202;11.510;2022-07-29T07:20:50;29.30;91.20
6118;DHT22;3089;48.202;11.510;2022-07-29T07:23:18;29.30;91.30
6118;DHT22;3089;48.202;11.510;2022-07-29T07:25:47;29.10;91.80
6118;DHT22;3089;48.202;11.510;2022-07-29T07:28:15;30.30;90.10
6118;DHT22;3089;48.202;11.510;2022-07-29T07:30:44;29.90;90.40
6118;DHT22;3089;48.202;11.510;2022-07-29T07:33:13;29.40;90.80
6118;DHT22;3089;48.202;11.510;2022-07-29T07:35:41;28.00;91.90
6118;DHT22;3089;48.202;11.510;2022-07-29T07:38:09;26.40;94.00
6118;DHT22;3089;48.202;11.510;2022-07-29T07:40:37;25.90;94.90
6118;DHT22;3089;48.202;11.510;2022-07-29T07:43:06;26.10;94.80
6118;DHT22;3089;48.202;11.510;2022-07-29T07:45:34;25.60;95.10
6118;DHT22;3089;48.202;11.510;2022-07-29T07:48:04;26.00;95.10
6118;DHT22;3089;48.202;11.510;2022-07-29T07:50:32;25.70;95.10
6118;DHT22;3089;48.202;11.510;2022-07-29T07:53:00;25.70;95.20
6118;DHT22;3089;48.202;11.510;2022-07-29T07:55:28;25.60;95.40
6118;DHT22;3089;48.202;11.510;2022-07-29T07:58:18;25.40;95.40
6118;DHT22;3089;48.202;11.510;2022-07-29T08:00:46;24.70;96.50
6118;DHT22;3089;48.202;11.510;2022-07-29T08:03:15;24.20;97.20
6118;DHT22;3089;48.202;11.510;2022-07-29T08:05:43;24.70;95.40
6118;DHT22;3089;48.202;11.510;2022-07-29T08:08:11;25.10;95.50
6118;DHT22;3089;48.202;11.510;2022-07-29T08:10:39;24.80;95.60
6118;DHT22;3089;48.202;11.510;2022-07-29T08:13:25;25.30;95.50
6118;DHT22;3089;48.202;11.510;2022-07-29T08:15:56;25.20;95.70
6118;DHT22;3089;48.202;11.510;2022-07-29T08:18:31;24.90;96.00
6118;DHT22;3089;48.202;11.510;2022-07-29T08:20:59;24.50;96.40
6118;DHT22;3089;48.202;11.510;2022-07-29T08:23:26;24.60;96.80
6118;DHT22;3089;48.202;11.510;2022-07-29T08:26:14;25.10;95.60
6118;DHT22;3089;48.202;11.510;2022-07-29T08:28:45;25.10;95.90
6118;DHT22;3089;48.202;11.510;2022-07-29T08:31:16;24.90;96.10
6118;DHT22;3089;48.202;11.510;2022-07-29T08:33:44;24.90;95.60
6118;DHT22;3089;48.202;11.510;2022-07-29T08:36:13;24.90;96.00
6118;DHT22;3089;48.202;11.510;2022-07-29T08:38:40;24.70;96.20
6118;DHT22;3089;48.202;11.510;2022-07-29T08:41:08;24.90;96.00
6118;DHT22;3089;48.202;11.510;2022-07-29T08:43:36;24.90;96.00
6118;DHT22;3089;48.202;11.510;2022-07-29T08:46:06;24.80;96.30
6118;DHT22;3089;48.202;11.510;2022-07-29T08:48:34;24.80;96.20
6118;DHT22;3089;48.202;11.510;2022-07-29T08:51:02;24.70;96.10
6118;DHT22;3089;48.202;11.510;2022-07-29T08:53:31;24.90;96.00
6118;DHT22;3089;48.202;11.510;2022-07-29T08:56:00;25.30;94.70
6118;DHT22;3089;48.202;11.510;2022-07-29T08:58:32;25.20;95.50
6118;DHT22;3089;48.202;11.510;2022-07-29T09:01:05;24.90;95.90
6118;DHT22;3089;48.202;11.510;2022-07-29T09:03:39;24.50;96.50
6118;DHT22;3089;48.202;11.510;2022-07-29T09:06:08;24.90;95.90
6118;DHT22;3089;48.202;11.510;2022-07-29T09:08:36;25.30;95.50
6118;DHT22;3089;48.202;11.510;2022-07-29T09:11:04;24.90;95.90
6118;DHT22;3089;48.202;11.510;2022-07-29T09:13:34;25.20;95.60
6118;DHT22;3089;48.202;11.510;2022-07-29T09:16:03;25.10;95.70
6118;DHT22;3089;48.202;11.510;2022-07-29T09:18:37;24.80;95.90
6118;DHT22;3089;48.202;11.510;2022-07-29T09:21:07;25.00;96.10
6118;DHT22;3089;48.202;11.510;2022-07-29T09:24:06;25.20;95.40
6118;DHT22;3089;48.202;11.510;2022-07-29T09:26:36;25.40;95.10
6118;DHT22;3089;48.202;11.510;2022-07-29T09:29:09;25.60;94.80
6118;DHT22;3089;48.202;11.510;2022-07-29T09:31:39;25.70;94.90
6118;DHT22;3089;48.202;11.510;2022-07-29T09:34:10;26.10;94.60
6118;DHT22;3089;48.202;11.510;2022-07-29T09:36:42;25.30;95.10
6118;DHT22;3089;48.202;11.510;2022-07-29T09:39:12;25.30;95.30
6118;DHT22;3089;48.202;11.510;2022-07-29T09:41:48;25.40;95.00
6118;DHT22;3089;48.202;11.510;2022-07-29T09:44:16;25.90;95.00
6118;DHT22;3089;48.202;11.510;2022-07-29T09:47:04;25.80;94.50
6118;DHT22;3089;48.202;11.510;2022-07-29T09:49:35;25.90;94.70
6118;DHT22;3089;48.202;11.510;2022-07-29T09:52:17;25.70;94.90
6118;DHT22;3089;48.202;11.510;2022-07-29T09:54:45;25.40;96.00
6118;DHT22;3089;48.202;11.510;2022-07-29T09:57:24;25.40;95.40
6118;DHT22;3089;48.202;11.510;2022-07-29T09:59:58;25.40;95.20
6118;DHT22;3089;48.202;11.510;2022-07-29T10:02:31;25.30;95.50
6118;DHT22;3089;48.202;11.510;2022-07-29T10:05:02;25.80;95.60
6118;DHT22;3089;48.202;11.510;2022-07-29T10:07:44;26.30;94.00
6118;DHT22;3089;48.202;11.510;2022-07-29T10:10:23;26.00;94.50
6118;DHT22;3089;48.202;11.510;2022-07-29T10:12:53;25.60;94.90
6118;DHT22;3089;48.202;11.510;2022-07-29T10:15:22;25.70;95.10
6118;DHT22;3089;48.202;11.510;2022-07-29T10:17:51;25.90;94.80
6118;DHT22;3089;48.202;11.510;2022-07-29T10:20:21;25.80;95.10
6118;DHT22;3089;48.202;11.510;2022-07-29T10:22:50;26.00;94.90
6118;DHT22;3089;48.202;11.510;2022-07-29T10:25:20;26.20;96.30
6118;DHT22;3089;48.202;11.510;2022-07-29T10:27:49;26.30;94.60
6118;DHT22;3089;48.202;11.510;2022-07-29T10:30:20;26.30;95.10
6118;DHT22;3089;48.202;11.510;2022-07-29T10:35:47;25.90;94.90
6118;DHT22;3089;48.202;11.510;2022-07-29T10:38:43;26.10;94.70
6118;DHT22;3089;48.202;11.510;2022-07-29T10:41:28;26.30;94.60
6118;DHT22;3089;48.202;11.510;2022-07-29T10:44:14;26.20;95.00
6118;DHT22;3089;48.202;11.510;2022-07-29T10:46:49;26.30;94.40
6118;DHT22;3089;48.202;11.510;2022-07-29T10:49:19;26.50;94.20
6118;DHT22;3089;48.202;11.510;2022-07-29T10:51:56;26.60;95.20
6118;DHT22;3089;48.202;11.510;2022-07-29T10:54:42;26.40;94.50
6118;DHT22;3089;48.202;11.510;2022-07-29T10:57:20;26.70;94.20
6118;DHT22;3089;48.202;11.510;2022-07-29T11:00:28;26.70;94.00
6118;DHT22;3089;48.202;11.510;2022-07-29T11:02:56;26.60;94.10
6118;DHT22;3089;48.202;11.510;2022-07-29T11:05:25;26.20;94.60
6118;DHT22;3089;48.202;11.510;2022-07-29T11:08:22;26.50;94.10
6118;DHT22;3089;48.202;11.510;2022-07-29T11:14:14;26.40;93.20
6118;DHT22;3089;48.202;11.510;2022-07-29T11:17:01;26.40;93.90
6118;DHT22;3089;48.202;11.510;2022-07-29T11:19:32;27.00;93.30
6118;DHT22;3089;48.202;11.510;2022-07-29T11:22:01;27.00;93.20
6118;DHT22;3089;48.202;11.510;2022-07-29T11:24:32;26.10;92.50
6118;DHT22;3089;48.202;11.510;2022-07-29T11:27:15;26.20;94.00
6118;DHT22;3089;48.202;11.510;2022-07-29T11:29:56;26.40;93.70
6118;DHT22;3089;48.202;11.510;2022-07-29T11:32:36;26.50;93.20
6118;DHT22;3089;48.202;11.510;2022-07-29T11:35:13;26.40;93.30
6118;DHT22;3089;48.202;11.510;2022-07-29T11:37:44;26.40;93.30
6118;DHT22;3089;48.202;11.510;2022-07-29T11:40:24;26.50;93.70
6118;DHT22;3089;48.202;11.510;2022-07-29T11:42:52;26.50;93.00
6118;DHT22;3089;48.202;11.510;2022-07-29T11:45:23;26.60;92.40
6118;DHT22;3089;48.202;11.510;2022-07-29T11:48:16;26.80;91.90
6118;DHT22;3089;48.202;11.510;2022-07-29T11:50:56;26.80;91.80
6118;DHT22;3089;48.202;11.510;2022-07-29T11:53:24;26.70;92.00
6118;DHT22;3089;48.202;11.510;2022-07-29T11:56:14;26.30;89.80
6118;DHT22;3089;48.202;11.510;2022-07-29T11:59:00;26.50;91.70
6118;DHT22;3089;48.202;11.510;2022-07-29T12:01:28;26.40;90.50
6118;DHT22;3089;48.202;11.510;2022-07-29T12:04:05;26.30;91.90
6118;DHT22;3089;48.202;11.510;2022-07-29T12:06:33;26.20;88.70
6118;DHT22;3089;48.202;11.510;2022-07-29T12:09:07;26.40;91.90
6118;DHT22;3089;48.202;11.510;2022-07-29T12:11:41;26.50;91.50
6118;DHT22;3089;48.202;11.510;2022-07-29T12:14:25;26.40;91.80
6118;DHT22;3089;48.202;11.510;2022-07-29T12:16:53;26.40;92.00
6118;DHT22;3089;48.202;11.510;2022-07-29T12:19:22;26.40;91.60
6118;DHT22;3089;48.202;11.510;2022-07-29T12:21:52;26.30;91.40
6118;DHT22;3089;48.202;11.510;2022-07-29T12:24:23;26.40;92.70
6118;DHT22;3089;48.202;11.510;2022-07-29T12:26:55;26.40;91.30
6118;DHT22;3089;48.202;11.510;2022-07-29T12:29:24;26.80;91.70
6118;DHT22;3089;48.202;11.510;2022-07-29T12:32:02;26.90;91.30
6118;DHT22;3089;48.202;11.510;2022-07-29T12:34:31;26.50;91.80
6118;DHT22;3089;48.202;11.510;2022-07-29T12:37:00;26.50;92.10
6118;DHT22;3089;48.202;11.510;2022-07-29T12:39:29;26.60;91.10
6118;DHT22;3089;48.202;11.510;2022-07-29T12:41:59;26.70;92.00
6118;DHT22;3089;48.202;11.510;2022-07-29T12:44:44;26.60;91.70
6118;DHT22;3089;48.202;11.510;2022-07-29T12:47:12;26.60;91.80
6118;DHT22;3089;48.202;11.510;2022-07-29T12:49:40;26.40;92.10
6118;DHT22;3089;48.202;11.510;2022-07-29T12:52:24;26.40;91.70
6118;DHT22;3089;48.202;11.510;2022-07-29T12:54:52;26.20;92.00
6118;DHT22;3089;48.202;11.510;2022-07-29T12:57:21;26.20;92.00
6118;DHT22;3089;48.202;11.510;2022-07-29T13:00:14;26.00;92.30
6118;DHT22;3089;48.202;11.510;2022-07-29T13:02:43;26.00;92.50
6118;DHT22;3089;48.202;11.510;2022-07-29T13:05:11;25.90;92.60
6118;DHT22;3089;48.202;11.510;2022-07-29T13:07:40;25.90;91.80
6118;DHT22;3089;48.202;11.510;2022-07-29T13:10:22;25.80;92.90
6118;DHT22;3089;48.202;11.510;2022-07-29T13:13:06;25.80;93.20
6118;DHT22;3089;48.202;11.510;2022-07-29T13:15:36;25.80;93.00
6118;DHT22;3089;48.202;11.510;2022-07-29T13:18:25;25.80;92.50
6118;DHT22;3089;48.202;11.510;2022-07-29T13:20:53;25.80;92.80
6118;DHT22;3089;48.202;11.510;2022-07-29T13:23:21;25.80;93.40
6118;DHT22;3089;48.202;11.510;2022-07-29T13:25:49;25.60;92.90
6118;DHT22;3089;48.202;11.510;2022-07-29T13:28:19;25.70;92.50
6118;DHT22;3089;48.202;11.510;2022-07-29T13:30:48;25.60;93.10
6118;DHT22;3089;48.202;11.510;2022-07-29T13:33:15;25.60;93.30
6118;DHT22;3089;48.202;11.510;2022-07-29T13:35:43;25.60;93.40
6118;DHT22;3089;48.202;11.510;2022-07-29T13:38:11;25.50;93.80
6118;DHT22;3089;48.202;11.510;2022-07-29T13:40:39;25.40;93.80
6118;DHT22;3089;48.202;11.510;2022-07-29T13:43:09;25.50;93.50
6118;DHT22;3089;48.202;11.510;2022-07-29T13:45:38;25.60;93.40
6118;DHT22;3089;48.202;11.510;2022-07-29T13:48:06;25.50;93.00
6118;DHT22;3089;48.202;11.510;2022-07-29T13:50:34;25.50;93.50
6118;DHT22;3089;48.202;11.510;2022-07-29T13:53:02;25.50;93.30
6118;DHT22;3089;48.202;11.510;2022-07-29T13:55:30;25.50;93.20
6118;DHT22;3089;48.202;11.510;2022-07-29T13:57:58;25.60;94.00
6118;DHT22;3089;48.202;11.510;2022-07-29T14:00:29;25.40;93.60
6118;DHT22;3089;48.202;11.510;2022-07-29T14:02:59;25.50;93.50
6118;DHT22;3089;48.202;11.510;2022-07-29T14:05:26;25.60;93.40
6118;DHT22;3089;48.202;11.510;2022-07-29T14:07:54;25.60;93.50
6118;DHT22;3089;48.202;11.510;2022-07-29T14:10:22;25.70;93.40
6118;DHT22;3089;48.202;11.510;2022-07-29T14:12:50;25.60;93.50
6118;DHT22;3089;48.202;11.510;2022-07-29T14:15:18;25.70;93.50
6118;DHT22;3089;48.202;11.510;2022-07-29T14:17:46;25.70;93.60
6118;DHT22;3089;48.202;11.510;2022-07-29T14:20:16;25.60;93.70
6118;DHT22;3089;48.202;11.510;2022-07-29T14:22:44;25.60;93.70
6118;DHT22;3089;48.202;11.510;2022-07-29T14:25:12;25.60;93.80
6118;DHT22;3089;48.202;11.510;2022-07-29T14:27:41;25.60;92.90
6118;DHT22;3089;48.202;11.510;2022-07-29T14:30:10;25.60;93.70
6118;DHT22;3089;48.202;11.510;2022-07-29T14:32:38;25.70;93.70
6118;DHT22;3089;48.202;11.510;2022-07-29T14:35:07;25.60;93.70
6118;DHT22;3089;48.202;11.510;2022-07-29T14:37:36;25.60;93.80
6118;DHT22;3089;48.202;11.510;2022-07-29T14:40:07;25.60;93.40
6118;DHT22;3089;48.202;11.510;2022-07-29T14:42:35;25.50;94.00
6118;DHT22;3089;48.202;11.510;2022-07-29T14:45:05;25.30;94.00
6118;DHT22;3089;48.202;11.510;2022-07-29T14:47:33;25.30;94.30
6118;DHT22;3089;48.202;11.510;2022-07-29T14:50:02;25.40;93.70
6118;DHT22;3089;48.202;11.510;2022-07-29T14:52:30;25.40;94.30
6118;DHT22;3089;48.202;11.510;2022-07-29T14:54:59;25.30;93.70
6118;DHT22;3089;48.202;11.510;2022-07-29T14:57:27;25.20;94.40
6118;DHT22;3089;48.202;11.510;2022-07-29T14:59:55;25.00;94.80
6118;DHT22;3089;48.202;11.510;2022-07-29T15:02:23;25.20;94.60
6118;DHT22;3089;48.202;11.510;2022-07-29T15:05:11;25.20;94.60
6118;DHT22;3089;48.202;11.510;2022-07-29T15:07:39;25.20;94.60
6118;DHT22;3089;48.202;11.510;2022-07-29T15:10:09;25.20;94.50
6118;DHT22;3089;48.202;11.510;2022-07-29T15:12:40;25.00;94.50
6118;DHT22;3089;48.202;11.510;2022-07-29T15:15:08;25.00;94.70
6118;DHT22;3089;48.202;11.510;2022-07-29T15:17:36;25.00;94.60
6118;DHT22;3089;48.202;11.510;2022-07-29T15:20:05;24.90;94.80
6118;DHT22;3089;48.202;11.510;2022-07-29T15:22:33;24.60;95.30
6118;DHT22;3089;48.202;11.510;2022-07-29T15:25:01;24.70;95.20
6118;DHT22;3089;48.202;11.510;2022-07-29T15:27:30;24.80;95.30
6118;DHT22;3089;48.202;11.510;2022-07-29T15:29:58;24.80;95.10
6118;DHT22;3089;48.202;11.510;2022-07-29T15:32:26;24.80;95.10
6118;DHT22;3089;48.202;11.510;2022-07-29T15:34:54;24.80;95.30
6118;DHT22;3089;48.202;11.510;2022-07-29T15:37:22;24.80;95.30
6118;DHT22;3089;48.202;11.510;2022-07-29T15:39:50;24.80;95.20
6118;DHT22;3089;48.202;11.510;2022-07-29T15:42:23;24.80;95.60
6118;DHT22;3089;48.202;11.510;2022-07-29T15:44:53;24.80;95.50
6118;DHT22;3089;48.202;11.510;2022-07-29T15:47:22;24.50;96.40
6118;DHT22;3089;48.202;11.510;2022-07-29T15:49:49;24.60;96.10
6118;DHT22;3089;48.202;11.510;2022-07-29T15:52:18;24.70;96.50
6118;DHT22;3089;48.202;11.510;2022-07-29T15:54:52;24.40;96.70
6118;DHT22;3089;48.202;11.510;2022-07-29T15:57:20;24.50;97.00
6118;DHT22;3089;48.202;11.510;2022-07-29T15:59:48;24.40;96.90
6118;DHT22;3089;48.202;11.510;2022-07-29T16:02:17;24.50;96.40
6118;DHT22;3089;48.202;11.510;2022-07-29T16:04:45;24.80;96.30
6118;DHT22;3089;48.202;11.510;2022-07-29T16:07:13;25.00;96.30
6118;DHT22;3089;48.202;11.510;2022-07-29T16:09:42;24.90;96.40
6118;DHT22;3089;48.202;11.510;2022-07-29T16:12:18;24.80;96.60
6118;DHT22;3089;48.202;11.510;2022-07-29T16:14:46;25.00;96.50
6118;DHT22;3089;48.202;11.510;2022-07-29T16:17:15;25.10;96.30